Météo Nord-Pas-de-Calais   La météo au plus près de chez vous

Observations météo à Mtgne Sources (98832)

Dimanche 3 Mai 2026


Température maximale

19.7°C

à 08:12

06h 06h UTC

Température minimale

17.8°C

à 19:00

18h 18h UTC

Rafale maximale

39 km/h

à 17:54

00h 00h UTC

Précipitations

0 mm

06h 06h UTC

Ensoleillement

1h 13 mins

00h 00h UTC

  Relevés météo

Afficher les données infra-horaire (6 mins)

Température
Point de rosée
Humidité
Vent
Précipitations
Ensoleillement
Rayonnement global
Heure Température
°C
Point de rosée
°C
Humidité
%
Vent
moyen (raf.), km/h
Précipitations
mm
Ensoleillement
min
Rayonnement global
J/m²
20:54 18.1 °C 17.5 °C 96 %24 km/h (31 km/h) 0 mm0 mm 0 min 0 J/m²
20:48 18.2 °C 17.4 °C 95 %22 km/h (30 km/h) 0 mm0 mm 0 min 0 J/m²
20:42 18.2 °C 17.4 °C 95 %22 km/h (28 km/h) 0 mm0 mm 0 min 0 J/m²
20:36 18.2 °C 17.4 °C 95 %20 km/h (27 km/h) 0 mm0 mm 0 min 0 J/m²
20:30 18.3 °C 17.3 °C 94 %23 km/h (32 km/h) 0 mm0 mm 0 min 0 J/m²
20:24 18.2 °C 17.4 °C 95 %21 km/h (32 km/h) 0 mm0 mm 0 min 0 J/m²
20:18 18.2 °C 17.6 °C 96 %19 km/h (28 km/h) 0 mm0 mm 0 min 0 J/m²
20:12 18 °C 17.7 °C 98 %21 km/h (32 km/h) 0 mm0 mm 0 min 0 J/m²
20:06 18.1 °C 17.8 °C 98 %23 km/h (32 km/h) 0 mm0 mm 0 min 0 J/m²
20:00 18 °C 17.7 °C 98 %23 km/h (32 km/h) 0 mm0 mm 0 min 0 J/m²
19:54 18 °C 17.7 °C 98 %23 km/h (31 km/h) 0 mm0 mm 0 min 0 J/m²
19:48 18.1 °C 17.8 °C 98 %24 km/h (32 km/h) 0 mm0 mm 0 min 0 J/m²
19:42 18.1 °C 17.8 °C 98 %24 km/h (34 km/h) 0 mm0 mm 0 min 0 J/m²
19:36 18 °C 17.7 °C 98 %26 km/h (35 km/h) 0 mm0 mm 0 min 0 J/m²
19:30 18.1 °C 17.8 °C 98 %27 km/h (35 km/h) 0 mm0 mm 0 min 0 J/m²
19:24 18 °C 17.7 °C 98 %28 km/h (39 km/h) 0 mm0 mm 0 min 0 J/m²
19:18 18 °C 17.7 °C 98 %28 km/h (39 km/h) 0 mm0 mm 0 min 0 J/m²
19:12 18 °C 17.8 °C 99 %28 km/h (36 km/h) 0 mm0 mm 0 min 0 J/m²
19:06 17.9 °C 17.7 °C 99 %29 km/h (37 km/h) 0 mm0 mm 0 min 0 J/m²
19:00 17.8 °C 17.6 °C 99 %30 km/h (39 km/h) 0 mm0 mm 0 min 0 J/m²
18:54 17.9 °C 17.7 °C 99 %30 km/h (39 km/h) 0 mm0 mm 0 min 0 J/m²
18:48 17.9 °C 17.7 °C 99 %27 km/h (36 km/h) 0 mm0 mm 0 min 0 J/m²
18:42 17.9 °C 17.7 °C 99 %26 km/h (32 km/h) 0 mm0 mm 0 min 0 J/m²
18:36 18 °C 17.8 °C 99 %26 km/h (32 km/h) 0 mm0 mm 0 min 0 J/m²
18:30 18 °C 17.8 °C 99 %28 km/h (39 km/h) 0 mm0 mm 0 min 0 J/m²
18:24 18.2 °C 18 °C 99 %29 km/h (39 km/h) 0 mm0 mm 0 min 0 J/m²
18:18 18.1 °C 17.9 °C 99 %27 km/h (35 km/h) 0 mm0 mm 0 min 0 J/m²
18:12 18 °C 17.8 °C 99 %24 km/h (32 km/h) 0 mm0 mm 0 min 0 J/m²
18:06 18.1 °C 17.9 °C 99 %27 km/h (36 km/h) 0 mm0 mm 0 min 0 J/m²
18:00 18.2 °C 18 °C 99 %27 km/h (39 km/h) 0 mm0 mm 0 min 0 J/m²
17:54 18.2 °C 18 °C 99 %27 km/h (39 km/h) 0 mm0 mm 0 min 0 J/m²
17:48 18.3 °C 18.1 °C 99 %27 km/h (38 km/h) 0 mm0 mm 0 min 0 J/m²
17:42 18.3 °C 18.1 °C 99 %28 km/h (38 km/h) 0 mm0 mm 0 min 0 J/m²
17:36 18.3 °C 18.1 °C 99 %26 km/h (35 km/h) 0 mm0 mm 0 min 0 J/m²
17:30 18.2 °C 18 °C 99 %26 km/h (35 km/h) 0 mm0 mm 0 min 0 J/m²
17:24 18.1 °C 17.9 °C 99 %25 km/h (35 km/h) 0 mm0 mm 0 min 0 J/m²
17:18 18.1 °C 17.9 °C 99 %25 km/h (36 km/h) 0 mm0 mm 0 min 0 J/m²
17:12 18 °C 17.8 °C 99 %25 km/h (36 km/h) 0 mm0 mm 0 min 0 J/m²
17:06 18 °C 17.8 °C 99 %23 km/h (32 km/h) 0 mm0 mm 0 min 0 J/m²
17:00 18.1 °C 17.9 °C 99 %23 km/h (31 km/h) 0 mm0 mm 0 min 0 J/m²
16:54 18 °C 17.8 °C 99 %23 km/h (31 km/h) 0 mm0 mm 0 min 0 J/m²
16:48 18.1 °C 17.9 °C 99 %24 km/h (31 km/h) 0 mm0 mm 0 min 0 J/m²
16:42 18.2 °C 18 °C 99 %22 km/h (31 km/h) 0 mm0 mm 0 min 0 J/m²
16:36 18.2 °C 17.9 °C 98 %19 km/h (27 km/h) 0 mm0 mm 0 min 0 J/m²
16:30 18.1 °C 17.8 °C 98 %18 km/h (24 km/h) 0 mm0 mm 0 min 0 J/m²
16:24 18.1 °C 17.8 °C 98 %19 km/h (26 km/h) 0 mm0 mm 0 min 0 J/m²
16:18 18.1 °C 17.8 °C 98 %19 km/h (27 km/h) 0 mm0 mm 0 min 0 J/m²
16:12 18 °C 17.7 °C 98 %18 km/h (26 km/h) 0 mm0 mm 0 min 0 J/m²
16:06 18 °C 17.7 °C 98 %18 km/h (26 km/h) 0 mm0 mm 0 min 0 J/m²
16:00 18.1 °C 17.8 °C 98 %18 km/h (24 km/h) 0 mm0 mm 0 min 0 J/m²
15:54 18.1 °C 17.8 °C 98 %18 km/h (24 km/h) 0 mm0 mm 0 min 0 J/m²
15:48 18.3 °C 18.1 °C 99 %17 km/h (26 km/h) 0 mm0 mm 0 min 0 J/m²
15:42 18.4 °C 18.2 °C 99 %21 km/h (30 km/h) 0 mm0 mm 0 min 0 J/m²
15:36 18.6 °C 18.4 °C 99 %22 km/h (30 km/h) 0 mm0 mm 0 min 0 J/m²
15:30 18.6 °C 18.4 °C 99 %20 km/h (25 km/h) 0 mm0 mm 0 min 0 J/m²
15:24 18.6 °C 18.4 °C 99 %18 km/h (24 km/h) 0 mm0 mm 0 min 0 J/m²
15:18 18.5 °C 18.2 °C 98 %18 km/h (23 km/h) 0 mm0 mm 0 min 0 J/m²
15:12 18.5 °C 18.2 °C 98 %17 km/h (24 km/h) 0 mm0 mm 0 min 0 J/m²
15:06 18.5 °C 18.3 °C 99 %17 km/h (24 km/h) 0 mm0 mm 0 min 0 J/m²
15:00 18.3 °C 18 °C 98 %15 km/h (21 km/h) 0 mm0 mm 0 min 0 J/m²
14:54 18.5 °C 18.2 °C 98 %13 km/h (18 km/h) 0 mm0 mm 0 min 0 J/m²
14:48 18.4 °C 18.1 °C 98 %13 km/h (20 km/h) 0 mm0 mm 0 min 0 J/m²
14:42 18.5 °C 18.2 °C 98 %14 km/h (21 km/h) 0 mm0 mm 0 min 0 J/m²
14:36 18.5 °C 18.2 °C 98 %15 km/h (25 km/h) 0 mm0 mm 0 min 0 J/m²
14:30 18.5 °C 18.2 °C 98 %18 km/h (30 km/h) 0 mm0 mm 0 min 0 J/m²
14:24 18.5 °C 18.2 °C 98 %18 km/h (28 km/h) 0 mm0 mm 0 min 0 J/m²
14:18 18.3 °C 18 °C 98 %16 km/h (23 km/h) 0 mm0 mm 0 min 0 J/m²
14:12 18.5 °C 18.2 °C 98 %13 km/h (19 km/h) 0 mm0 mm 0 min 0 J/m²
14:06 18.5 °C 18.2 °C 98 %14 km/h (19 km/h) 0 mm0 mm 0 min 0 J/m²
14:00 18.6 °C 18.3 °C 98 %15 km/h (23 km/h) 0 mm0 mm 0 min 0 J/m²
13:54 18.6 °C 18.3 °C 98 %18 km/h (26 km/h) 0 mm0 mm 0 min 0 J/m²
13:48 18.5 °C 18.2 °C 98 %18 km/h (24 km/h) 0 mm0 mm 0 min 0 J/m²
13:42 18.5 °C 18.2 °C 98 %18 km/h (26 km/h) 0 mm0 mm 0 min 0 J/m²
13:36 18.5 °C 18.2 °C 98 %18 km/h (26 km/h) 0 mm0 mm 0 min 0 J/m²
13:30 18.5 °C 18.3 °C 99 %17 km/h (25 km/h) 0 mm0 mm 0 min 0 J/m²
13:24 18.5 °C 18.3 °C 99 %18 km/h (24 km/h) 0 mm0 mm 0 min 0 J/m²
13:18 18.4 °C 18.2 °C 99 %19 km/h (27 km/h) 0 mm0 mm 0 min 0 J/m²
13:12 18.5 °C 18.3 °C 99 %19 km/h (27 km/h) 0 mm0 mm 0 min 0 J/m²
13:06 18.4 °C 18.2 °C 99 %20 km/h (26 km/h) 0 mm0 mm 0 min 0 J/m²
13:00 18.4 °C 18.2 °C 99 %22 km/h (27 km/h) 0 mm0 mm 0 min 0 J/m²
12:54 18.4 °C 18.2 °C 99 %21 km/h (27 km/h) 0 mm0 mm 0 min 0 J/m²
12:48 18.5 °C 18.3 °C 99 %19 km/h (26 km/h) 0 mm0 mm 0 min 0 J/m²
12:42 18.3 °C 18.1 °C 99 %18 km/h (25 km/h) 0 mm0 mm 0 min 0 J/m²
12:36 18.5 °C 18.3 °C 99 %18 km/h (25 km/h) 0 mm0 mm 0 min 0 J/m²
12:30 18.5 °C 18.3 °C 99 %18 km/h (25 km/h) 0 mm0 mm 0 min 0 J/m²
12:24 18.4 °C 18.2 °C 99 %19 km/h (26 km/h) 0 mm0 mm 0 min 0 J/m²
12:18 18.4 °C 18.2 °C 99 %19 km/h (26 km/h) 0 mm0 mm 0 min 0 J/m²
12:12 18.3 °C 18.1 °C 99 %20 km/h (26 km/h) 0 mm0 mm 0 min 0 J/m²
12:06 18.5 °C 18.3 °C 99 %21 km/h (28 km/h) 0 mm0 mm 0 min 0 J/m²
12:00 18.6 °C 18.4 °C 99 %20 km/h (29 km/h) 0 mm0 mm 0 min 0 J/m²
11:54 18.6 °C 18.4 °C 99 %21 km/h (29 km/h) 0 mm0 mm 0 min 0 J/m²
11:48 18.7 °C 18.5 °C 99 %23 km/h (32 km/h) 0 mm0 mm 0 min 0 J/m²
11:42 18.7 °C 18.5 °C 99 %23 km/h (32 km/h) 0 mm0 mm 0 min 0 J/m²
11:36 18.8 °C 18.6 °C 99 %24 km/h (34 km/h) 0 mm0 mm 0 min 0 J/m²
11:30 18.9 °C 18.7 °C 99 %23 km/h (34 km/h) 0 mm0 mm 0 min 0 J/m²
11:24 18.9 °C 18.7 °C 99 %22 km/h (27 km/h) 0 mm0 mm 0 min 0 J/m²
11:18 18.9 °C 18.7 °C 99 %22 km/h (27 km/h) 0 mm0 mm 0 min 0 J/m²
11:12 18.9 °C 18.7 °C 99 %22 km/h (27 km/h) 0 mm0 mm 0 min 0 J/m²
11:06 18.9 °C 18.7 °C 99 %22 km/h (30 km/h) 0 mm0 mm 0 min 0 J/m²
11:00 18.7 °C 18.5 °C 99 %21 km/h (27 km/h) 0 mm0 mm 0 min 0 J/m²
10:54 18.8 °C 18.6 °C 99 %19 km/h (27 km/h) 0 mm0 mm 0 min 0 J/m²
10:48 18.9 °C 18.7 °C 99 %18 km/h (23 km/h) 0 mm0 mm 0 min 0 J/m²
10:42 18.8 °C 18.6 °C 99 %17 km/h (23 km/h) 0 mm0 mm 0 min 0 J/m²
10:36 18.8 °C 18.6 °C 99 %15 km/h (19 km/h) 0 mm0 mm 0 min 0 J/m²
10:30 18.7 °C 18.5 °C 99 %15 km/h (19 km/h) 0 mm0 mm 0 min 0 J/m²
10:24 18.6 °C 18.3 °C 98 %14 km/h (18 km/h) 0 mm0 mm 0 min 0 J/m²
10:18 18.6 °C 18.3 °C 98 %13 km/h (18 km/h) 0 mm0 mm 0 min 0 J/m²
10:12 18.6 °C 18.3 °C 98 %12 km/h (15 km/h) 0 mm0 mm 0 min 0 J/m²
10:06 18.7 °C 18.2 °C 97 %12 km/h (15 km/h) 0 mm0 mm 0 min 0 J/m²
10:00 18.7 °C 18.2 °C 97 %11 km/h (13 km/h) 0 mm0 mm 0 min 0 J/m²
09:54 18.8 °C 18.3 °C 97 %10 km/h (13 km/h) 0 mm0 mm 0 min 0 J/m²
09:48 18.7 °C 18.2 °C 97 %10 km/h (13 km/h) 0 mm0 mm 0 min 0 J/m²
09:42 18.8 °C 18.5 °C 98 %10 km/h (13 km/h) 0 mm0 mm 0 min 0 J/m²
09:36 18.9 °C 18.6 °C 98 %9 km/h (12 km/h) 0 mm0 mm 0 min 0 J/m²
09:30 18.9 °C 18.6 °C 98 %9 km/h (13 km/h) 0 mm0 mm 0 min 0 J/m²
09:24 18.9 °C 18.6 °C 98 %8 km/h (13 km/h) 0 mm0 mm 0 min 0 J/m²
09:18 19 °C 18.5 °C 97 %6 km/h (10 km/h) 0 mm0 mm 0 min 0 J/m²
09:12 19.1 °C 18.4 °C 96 %5 km/h (8 km/h) 0 mm0 mm 0 min 0 J/m²
09:06 19.2 °C 18.4 °C 95 %4 km/h (8 km/h) 0 mm0 mm 0 min 0 J/m²
09:00 19.3 °C 18.6 °C 96 %2 km/h (5 km/h) 0 mm0 mm 0 min 0 J/m²
08:54 19.3 °C 18.6 °C 96 %0 km/h (3 km/h) 0 mm0 mm 0 min 0 J/m²
08:48 19.3 °C 18.6 °C 96 %2 km/h (6 km/h) 0 mm0 mm 0 min 0 J/m²
08:42 19.3 °C 18.8 °C 97 %4 km/h (8 km/h) 0 mm0 mm 0 min 0 J/m²
08:36 19.3 °C 18.6 °C 96 %5 km/h (8 km/h) 0 mm0 mm 0 min 0 J/m²
08:30 19.4 °C 18.9 °C 97 %5 km/h (8 km/h) 0 mm0 mm 0 min 0 J/m²
08:24 19.5 °C 19.2 °C 98 %4 km/h (8 km/h) 0 mm0 mm 0 min 0 J/m²
08:18 19.6 °C 19.3 °C 98 %4 km/h (6 km/h) 0 mm0 mm 0 min 0 J/m²
08:12 19.7 °C 19.4 °C 98 %4 km/h (7 km/h) 0 mm0 mm 0 min 0 J/m²
08:06 19.6 °C 19.1 °C 97 %5 km/h (9 km/h) 0 mm0 mm 0 min 2700 J/m²
08:00 19.7 °C 19.2 °C 97 %7 km/h (10 km/h) 0 mm0 mm 0 min 8100 J/m²
07:54 19.8 °C 19.1 °C 96 %7 km/h (11 km/h) 0 mm0 mm 0 min 10300 J/m²
07:48 19.8 °C 18.8 °C 94 %6 km/h (11 km/h) 0 mm0 mm 0 min 12300 J/m²
07:42 20 °C 18.8 °C 93 %6 km/h (10 km/h) 0 mm0 mm 0 min 12900 J/m²
07:36 20.2 °C 18.7 °C 91 %6 km/h (10 km/h) 0 mm0 mm 0 min 14900 J/m²
07:30 21 °C 18.8 °C 87 %5 km/h (10 km/h) 0 mm0 mm 2 min 30500 J/m²
07:24 21.4 °C 19 °C 86 %6 km/h (10 km/h) 0 mm0 mm 0 min 22200 J/m²
07:18 21.1 °C 18.7 °C 86 %9 km/h (15 km/h) 0 mm0 mm 1 min 30700 J/m²
07:12 21.2 °C 18.9 °C 87 %10 km/h (15 km/h) 0 mm0 mm 6 min 90700 J/m²
07:06 21.8 °C 19.2 °C 85 %7 km/h (13 km/h) 0 mm0 mm 6 min 89900 J/m²
07:00 22.2 °C 19.7 °C 86 %3 km/h (10 km/h) 0 mm0 mm 6 min 98700 J/m²
06:54 21.7 °C 19.6 °C 88 %4 km/h (10 km/h) 0 mm0 mm 6 min 94400 J/m²
06:48 21.9 °C 19.8 °C 88 %5 km/h (10 km/h) 0 mm0 mm 6 min 123500 J/m²
06:42 21.3 °C 19.2 °C 88 %4 km/h (11 km/h) 0 mm0 mm 6 min 137300 J/m²
06:36 20.5 °C 19.8 °C 96 %9 km/h (15 km/h) 0 mm0 mm 5 min 120900 J/m²
06:30 20 °C 19 °C 94 %9 km/h (15 km/h) 0 mm0 mm 0 min 40300 J/m²
06:24 20.2 °C 18.7 °C 91 %4 km/h (9 km/h) 0 mm0 mm 0 min 32000 J/m²
06:18 20.4 °C 19.2 °C 93 %5 km/h (9 km/h) 0 mm0 mm 0 min 29500 J/m²
06:12 20.6 °C 19.1 °C 91 %5 km/h (11 km/h) 0 mm0 mm 3 min 90500 J/m²
06:06 20.3 °C 18.6 °C 90 %5 km/h (10 km/h) 0 mm0 mm 0 min 66900 J/m²
06:00 20.4 °C 19.6 °C 95 %8 km/h (16 km/h) 0.2 mm0.8 mm 4 min 129800 J/m²
05:54 20.2 °C 19.4 °C 95 %10 km/h (18 km/h) 0.6 mm0 mm 0 min 58000 J/m²
05:48 20 °C 18.8 °C 93 %13 km/h (19 km/h) 0 mm0 mm 0 min 26800 J/m²
05:42 19.8 °C 18.8 °C 94 %15 km/h (19 km/h) 0 mm0 mm 0 min 26000 J/m²
05:36 19.9 °C 18.7 °C 93 %13 km/h (18 km/h) 0 mm0 mm 0 min 19500 J/m²
05:30 20.2 °C 18.9 °C 92 %12 km/h (18 km/h) 0 mm0 mm 0 min 24700 J/m²
05:24 20.7 °C 19.2 °C 91 %14 km/h (21 km/h) 0 mm0 mm 3 min 146500 J/m²
05:18 20.5 °C 19.2 °C 92 %15 km/h (21 km/h) 0 mm0 mm 1 min 118900 J/m²
05:12 20.2 °C 19.2 °C 94 %15 km/h (22 km/h) 0 mm0 mm 0 min 72700 J/m²
05:06 20.2 °C 19.2 °C 94 %17 km/h (23 km/h) 0 mm0 mm 0 min 45500 J/m²
05:00 20.5 °C 19.2 °C 92 %16 km/h (23 km/h) 0 mm0 mm 0 min 47800 J/m²
04:54 20.6 °C 18.7 °C 89 %13 km/h (19 km/h) 0 mm0 mm 0 min 65300 J/m²
04:48 20.6 °C 18.4 °C 87 %12 km/h (18 km/h) 0 mm0 mm 0 min 90900 J/m²
04:42 20.6 °C 18.5 °C 88 %12 km/h (18 km/h) 0 mm0 mm 0 min 84300 J/m²
04:36 20.4 °C 18.3 °C 88 %13 km/h (18 km/h) 0 mm0 mm 0 min 79500 J/m²
04:30 20.4 °C 18.7 °C 90 %13 km/h (19 km/h) 0 mm0 mm 0 min 62500 J/m²
04:24 20.5 °C 18.6 °C 89 %15 km/h (21 km/h) 0 mm0 mm 0 min 59700 J/m²
04:18 20.6 °C 18.9 °C 90 %14 km/h (21 km/h) 0 mm0 mm 0 min 81500 J/m²
04:12 20.4 °C 18.9 °C 91 %14 km/h (21 km/h) 0 mm0 mm 0 min 59900 J/m²
04:06 20.6 °C 18.7 °C 89 %13 km/h (21 km/h) 0 mm0 mm 0 min 42800 J/m²
04:00 20.8 °C 19.3 °C 91 %11 km/h (19 km/h) 0 mm0 mm 0 min 26900 J/m²
03:54 21.1 °C 19.7 °C 92 %6 km/h (19 km/h) 0 mm0 mm 0 min 18000 J/m²
03:48 21.2 °C 19.5 °C 90 %6 km/h (18 km/h) 0 mm0 mm 0 min 11100 J/m²
03:42 21.8 °C 19.9 °C 89 %5 km/h (12 km/h) 0 mm0 mm 0 min 36400 J/m²
03:36 22 °C 19.7 °C 87 %7 km/h (13 km/h) 0 mm0 mm 0 min 75400 J/m²
03:30 22.6 °C 19.8 °C 84 %11 km/h (18 km/h) 0 mm0 mm 0 min 83500 J/m²
03:24 23 °C 20.1 °C 84 %13 km/h (21 km/h) 0 mm0 mm 0 min 87200 J/m²
03:18 23.3 °C 20.4 °C 84 %9 km/h (21 km/h) 0 mm0 mm 1 min 149500 J/m²
03:12 23 °C 20.1 °C 84 %7 km/h (13 km/h) 0 mm0 mm 6 min 341700 J/m²
03:06 22.5 °C 19.9 °C 85 %9 km/h (16 km/h) 0 mm0 mm 1 min 162200 J/m²
03:00 22.7 °C 20.2 °C 86 %12 km/h (19 km/h) 0 mm0 mm 4 min 260100 J/m²
02:54 22.4 °C 20.7 °C 90 %13 km/h (20 km/h) 0 mm0 mm 3 min 199800 J/m²
02:48 21.7 °C 19.6 °C 88 %13 km/h (23 km/h) 0 mm0 mm 0 min 124100 J/m²
02:42 22.1 °C 19.6 °C 86 %13 km/h (22 km/h) 0 mm0 mm 0 min 76900 J/m²
02:36 22.4 °C 19.8 °C 85 %12 km/h (18 km/h) 0 mm0 mm 1 min 118200 J/m²
02:30 22.3 °C 20.2 °C 88 %7 km/h (14 km/h) 0 mm0 mm 1 min 149500 J/m²
02:24 22.1 °C 19.6 °C 86 %6 km/h (11 km/h) 0 mm0 mm 1 min 144900 J/m²
02:18 22.1 °C 19.8 °C 87 %6 km/h (11 km/h) 0 mm0 mm 0 min 97200 J/m²
02:12 22 °C 19.2 °C 84 %5 km/h (10 km/h) 0 mm0 mm 0 min 115100 J/m²
02:06 22 °C 19 °C 83 %5 km/h (12 km/h) 0 mm0 mm 0 min 121000 J/m²
02:00 21.6 °C 19.2 °C 86 %6 km/h (12 km/h) 0 mm0 mm 0 min 123500 J/m²
01:54 21.7 °C 18.7 °C 83 %6 km/h (10 km/h) 0 mm0 mm 0 min 92500 J/m²
01:48 21.8 °C 19.2 °C 85 %8 km/h (13 km/h) 0 mm0 mm 0 min 80200 J/m²
01:42 21.8 °C 19.2 °C 85 %9 km/h (13 km/h) 0 mm0 mm 0 min 79100 J/m²
01:36 21.9 °C 19.1 °C 84 %6 km/h (12 km/h) 0 mm0 mm 0 min 69900 J/m²
01:30 22.1 °C 18.9 °C 82 %5 km/h (8 km/h) 0 mm0 mm 0 min 64700 J/m²
01:24 22.3 °C 18.9 °C 81 %4 km/h (8 km/h) 0 mm0 mm 0 min 94500 J/m²
01:18 22.3 °C 19.1 °C 82 %3 km/h (8 km/h) 0 mm0 mm 3 min 189400 J/m²
01:12 22 °C 19 °C 83 %2 km/h (10 km/h) 0 mm0 mm 0 min 71200 J/m²
01:06 22.2 °C 19 °C 82 %3 km/h (11 km/h) 0 mm0 mm 0 min 64700 J/m²
01:00 22.4 °C 19 °C 81 %6 km/h (13 km/h) 0 mm0 mm 0 min 78400 J/m²
00:54 22.6 °C 18.6 °C 78 %8 km/h (13 km/h) 0 mm0 mm 4 min 212600 J/m²
00:48 22.6 °C 18.4 °C 77 %8 km/h (16 km/h) 0 mm0 mm 6 min 264000 J/m²
00:42 22.8 °C 19.6 °C 82 %6 km/h (16 km/h) 0 mm0 mm 4 min 188800 J/m²
00:36 22.9 °C 18.9 °C 78 %4 km/h (10 km/h) 0 mm0 mm 4 min 202500 J/m²
00:30 22.1 °C 18.7 °C 81 %4 km/h (10 km/h) 0 mm0 mm 6 min 233800 J/m²
00:24 21.3 °C 18.9 °C 86 %5 km/h (10 km/h) 0 mm0 mm 6 min 194700 J/m²
00:18 21 °C 18.2 °C 84 %4 km/h (8 km/h) 0 mm0 mm 6 min 220900 J/m²
00:12 20.6 °C 18.5 °C 88 %7 km/h (15 km/h) 0 mm0 mm 6 min 204500 J/m²
00:06 20.4 °C 18.5 °C 89 %10 km/h (20 km/h) 0 mm0 mm 0 min 88300 J/m²
00:00 20.7 °C 19 °C 90 %9 km/h (17 km/h) 0 mm0 mm 0 min 82400 J/m²

Données via Météo-France

   Vigilance

   Dernière mise à jour Dimanche à 16:00

Application mobile

iOS

Android / iOS / PC

   Fil d'actualités

  Il y a 1 heureVoir plus

> Prévisions pour le 04/05 : Ciel généralement couvert en matinée, avec tout de même quelques rares éclaircies. Rapidement vers la fin de matinée, des averses orageuses prendront naissance autour de l'Avesnois. Ces averses pourront se généraliser aux secteurs limitrophes dans l'après-midi (Cambrésis, Valenciennois, ... jusqu'à la métropolle Lilloise et l'Artois) en cours d'après-midi, mais sans certitude. Ces averses orageuses seront très peu mobiles et très localisées: quelques inondations localisées sont possibles sur les secteurs habitués dans ce genre de situation. Compte tenu de la difficulté de la prévision et du caractère très localisé de ces averses, on pourrait passer à côté... ou non. Baisse des températures au global sur la région, avec pas plus de 17°C pour les maximales ! En matinée, températures comprises entre 11°C et 12°C. Vent faible. Dans l'après-midi, températures comprises entre 12°C et 17°C. Vent faible. Pensez à regarder les cartes pour voir le temps prévu! Bonne soirée ! :) Hugo. ---- 👉 Retrouvez les prévisions pour votre ville sur https://meteo-npdc.fr/previsions/ma-ville/

  Il y a 3 heuresVoir plus

⚡️ Alors que nos averses orageuses quittent la région par la Belgique, d'autres se situent encore entre Cambrésis/Avesnois/Valenciennois... et d'autres arrivent encore par la Picardie ! Il y a encore de la réserve derrière, ce n'est donc pas encore totalement terminé. Fin prévue en soirée :) Hugo

  Il y a 4 heuresVoir plus

⚡️ L'essentiel de l'activité orageuse se situe entre Arras et Lille maintenant, où les pluies sont également les plus intenses. Ailleurs, pluies modérées et ponctuellment fortes... ou rien du tout ! 😁 Cet orage va remonter sur la métropole Lilloise avant de nous quitter vers la Belgique très bientôt :)

  Il y a 5 heuresVoir plus

Comme je vous le disais, pas grand chose à attendre cet après-midi: au moins nous avons un peu d'eau, pour le plus grand bien de nos jardins ! Il faudra attendre la soirée pour que ces averses ne cessent. En attendant, profitez-en pour faire la danse de la pluie 😁 Hugo

  Il y a 7 heuresVoir plus

⚡️ Retour des orages cet après-midi, notamment autour de Lillers. Beaucoup de réserve également arrivant sur la Somme, ce n'est donc que le début des festivités pour la journée ! Pas grand chose à attendre néanmoins en dehors de coups de tonnerre / fortes pluies. Le Boulonnais et le Calaisis devraient rester en marge cet après-midi, même si une averse n'est pas totalement à exclure ;) Hugo